• Join FlightAware (Why Join?)
  • Login
  • US Flag 
10:32AM EST


 

Airport Tracker/Info


-or-


 

Live Flight TrackerFlight Track Log ✈ KCE2 ✈ 22-May-2013 ✈ KBED - CYSJ

Flight Track Log - Related Links

Times and Time Zones

All times are in EDT time to prevent confusion due to time zone crossing. See the KCE2 flight status page for this flight to view local times or setup timezone preferences in your user account.

Time Position Orientation Groundspeed Altitude Reporting Facility
EDT Latitude Longitude Course Direction KTS MPH feet Rate Location/Type
10:35PM 42.4910 -71.2700 34° Northeast 185 213 1,700  Level FlightAware
10:35PM 42.5170 -71.2430 37° Northeast 276 318 2,700 3,000 Climbing FlightAware
10:36PM 42.5420 -71.2140 41° Northeast 294 338 4,500 4,800 Climbing FlightAware
10:36PM 42.5540 -71.1900 56° Northeast 297 342 5,900 4,980 Climbing FlightAware
10:36PM 42.5640 -71.1680 58° Northeast 302 348 7,000 4,920 Climbing FlightAware
10:37PM 42.5820 -71.1250 60° Northeast 307 353 9,200 4,440 Climbing FlightAware
10:37PM 42.6160 -71.0470 59° Northeast 337 388 12,200 3,360 Climbing FlightAware
10:38PM 42.6500 -70.9680 60° Northeast 386 444 14,000 2,880 Climbing FlightAware
10:39PM 42.7040 -70.8790 50° Northeast 388 447 16,300 4,140 Climbing FlightAware
10:39PM 42.7490 -70.8080 49° Northeast 364 419 19,900 4,620 Climbing FlightAware
10:40PM 42.7920 -70.7390 50° Northeast 366 421 22,500 3,420 Climbing FlightAware
10:41PM 42.8360 -70.6570 54° Northeast 380 437 24,800 2,640 Climbing FlightAware
10:41PM 42.8800 -70.5760 53° Northeast 402 463 26,300 2,400 Climbing FlightAware
10:42PM 42.9250 -70.4920 54° Northeast 416 479 28,000 2,580 Climbing FlightAware
10:43PM 42.9910 -70.3690 54° Northeast 422 486 30,600 2,580 Climbing FlightAware
10:44PM 43.0380 -70.2800 54° Northeast 424 488 32,300 2,460 Climbing FlightAware
10:45PM 43.0930 -70.1780 54° Northeast 437 503 34,100 2,100 Climbing FlightAware
10:45PM 43.1410 -70.0870 54° Northeast 446 513 35,300 1,320 Climbing FlightAware
10:46PM 43.1920 -69.9900 54° Northeast 468 539 36,000 480 Climbing FlightAware
10:47PM 43.2350 -69.9080 54° Northeast 493 567 36,000  Level FlightAware
10:47PM 43.3090 -69.7670 54° Northeast 495 570 36,000  Level FlightAware
10:48PM 43.3620 -69.6660 54° Northeast 494 568 36,000  Level FlightAware
10:49PM 43.4140 -69.5670 54° Northeast 493 567 36,000  Level FlightAware
10:49PM 43.4700 -69.4580 55° Northeast 488 562 36,000  Level FlightAware
10:50PM 43.5240 -69.3530 55° Northeast 489 563 36,000  Level FlightAware
10:51PM 43.5760 -69.2540 54° Northeast 489 563 36,000  Level FlightAware
10:52PM 43.6320 -69.1430 55° Northeast 489 563 36,000  Level FlightAware
10:52PM 43.6990 -69.0130 54° Northeast 489 563 36,000  Level FlightAware
10:53PM 43.7560 -68.9010 55° Northeast 489 563 36,000  Level FlightAware
10:54PM 43.8000 -68.8140 55° Northeast 489 563 36,000  Level FlightAware
10:54PM 43.8440 -68.7270 55° Northeast 489 563 36,000  Level FlightAware
10:55PM 43.8880 -68.6390 55° Northeast 489 563 36,000  Level FlightAware
10:56PM 43.9430 -68.5300 55° Northeast 489 563 36,000 -120 Level FlightAware
10:57PM 44.0560 -68.3050 55° Northeast 493 567 35,800 -960 Descending FlightAware
10:58PM 44.1480 -68.1210 55° Northeast 500 575 34,100 -1,620 Descending FlightAware
10:59PM 44.1940 -68.0270 56° Northeast 492 566 33,000 -1,860 Descending FlightAware
10:59PM 44.2580 -67.8970 55° Northeast 497 572 31,500 -1,980 Descending FlightAware
11:01PM 44.3450 -67.7180 56° Northeast 514 592 29,300 -2,040 Descending FlightAware
11:01PM 44.4060 -67.5940 55° Northeast 511 588 27,800 -2,340 Descending FlightAware
11:02PM 44.4660 -67.4710 56° Northeast 497 572 25,800 -2,700 Descending FlightAware
11:03PM 44.5160 -67.3660 56° Northeast 484 557 24,000 -2,580 Descending FlightAware
11:03PM 44.5660 -67.2630 56° Northeast 469 540 22,400 -2,520 Descending FlightAware
11:04PM 44.6190 -67.1520 56° Northeast 458 527 20,500 -2,400 Descending FlightAware
11:05PM 44.6650 -67.0560 56° Northeast 443 510 19,000 -2,400 Descending FlightAware
11:06PM 44.7170 -66.9470 56° Northeast 433 498 17,100 -2,400 Descending FlightAware
11:06PM 44.7600 -66.8560 56° Northeast 416 479 15,600 -2,280 Descending FlightAware
11:07PM 44.8030 -66.7650 56° Northeast 410 472 14,100 -2,220 Descending FlightAware
11:08PM 44.8490 -66.6670 56° Northeast 394 453 12,500 -2,160 Descending FlightAware
11:08PM 44.8890 -66.5820 56° Northeast 388 447 11,100 -2,100 Descending FlightAware
11:09PM 44.9290 -66.4960 57° Northeast 383 441 9,700 -2,100 Descending FlightAware
11:09PM 44.9580 -66.4340 57° Northeast 369 425 8,700 -1,920 Descending FlightAware
11:10PM 44.9710 -66.4060 57° Northeast 358 412 8,300 -1,740 Descending FlightAware
11:10PM 44.9980 -66.3480 57° Northeast 331 381 7,400 -1,920 Descending FlightAware
11:10PM 45.0110 -66.3210 56° Northeast 326 375 6,900 -1,800 Descending FlightAware
11:11PM 45.0310 -66.2780 57° Northeast 306 352 6,200 -1,680 Descending FlightAware
11:11PM 45.0540 -66.2280 57° Northeast 300 345 5,400 -1,680 Descending FlightAware
11:12PM 45.0740 -66.1860 56° Northeast 300 345 4,700 -1,560 Descending FlightAware
11:12PM 45.0900 -66.1490 59° Northeast 302 348 4,100 -720 Descending FlightAware
11:13PM 45.1090 -66.1080 57° Northeast 302 348 4,100 -1,260 Level FlightAware
11:14PM 45.1667 -66.0167 57° Northeast 290 334 2,100 -960 Descending Moncton Center
11:15PM 45.2167 -65.9333 50° Northeast 230 265 2,000 -480 Descending Moncton Center
11:16PM 45.2500 -65.9167 19° North 160 184 1,200 -660 Descending Moncton Center
11:17PM 45.2833 -65.9000 19° North 130 150 700 -540 Descending Moncton Center